createdAt,value
2022-10-25T00:01:30.588Z,91.49
2022-10-25T00:03:58.307Z,91.66
2022-10-25T00:06:26.772Z,91.54
2022-10-25T00:08:53.988Z,91.75
2022-10-25T00:11:31.298Z,92.08
2022-10-25T00:14:02.203Z,92.11
2022-10-25T00:16:34.603Z,91.95
2022-10-25T00:19:01.664Z,91.84
2022-10-25T00:21:28.675Z,91.56
2022-10-25T00:23:55.727Z,91.42
2022-10-25T00:26:22.811Z,91.04
2022-10-25T00:28:54.947Z,90.98
2022-10-25T00:31:23.757Z,91.29
2022-10-25T00:33:50.896Z,91.16
2022-10-25T00:36:21.564Z,91.23
2022-10-25T00:38:48.923Z,91.15
2022-10-25T00:41:22.248Z,91.20
2022-10-25T00:43:55.906Z,91.03
2022-10-25T00:46:31.674Z,90.91
2022-10-25T00:49:10.715Z,90.81
2022-10-25T00:51:59.283Z,90.67
2022-10-25T00:54:38.175Z,90.63
2022-10-25T00:57:16.096Z,90.35
2022-10-25T00:59:46.393Z,90.10
2022-10-25T01:02:16.462Z,89.75
2022-10-25T01:04:44.160Z,89.83
2022-10-25T01:07:11.797Z,89.71
2022-10-25T01:09:41.227Z,89.76
2022-10-25T01:12:08.287Z,90.13
2022-10-25T01:14:43.206Z,90.43
2022-10-25T01:17:41.475Z,90.33
2022-10-25T01:21:01.081Z,90.36
2022-10-25T01:24:25.571Z,90.45
2022-10-25T01:27:15.629Z,90.33
2022-10-25T01:30:22.907Z,90.06
2022-10-25T01:33:14.465Z,90.17
2022-10-25T01:35:58.760Z,90.29
2022-10-25T01:38:59.767Z,90.57
2022-10-25T01:41:53.884Z,90.57
2022-10-25T01:44:42.479Z,90.90
2022-10-25T01:47:41.250Z,91.15
2022-10-25T01:50:21.238Z,91.22
2022-10-25T01:52:48.246Z,91.36
2022-10-25T01:55:16.364Z,91.29
2022-10-25T01:58:06.010Z,91.06
2022-10-25T02:00:52.931Z,91.12
2022-10-25T02:03:45.152Z,91.00
2022-10-25T02:06:28.802Z,90.76
2022-10-25T02:09:17.747Z,90.63
2022-10-25T02:11:45.020Z,90.68
2022-10-25T02:14:28.589Z,90.43
2022-10-25T02:17:15.627Z,90.37
2022-10-25T02:19:50.901Z,90.23
2022-10-25T02:22:23.882Z,90.20
2022-10-25T02:24:53.525Z,90.14
2022-10-25T02:27:23.409Z,89.93
2022-10-25T02:29:54.126Z,89.96
2022-10-25T02:32:21.888Z,89.82
2022-10-25T02:34:50.556Z,89.62
2022-10-25T02:37:18.209Z,89.64
2022-10-25T02:39:46.490Z,89.46
2022-10-25T02:42:13.486Z,89.30
2022-10-25T02:44:40.572Z,89.41
2022-10-25T02:47:08.084Z,89.18
2022-10-25T02:49:35.197Z,89.27
2022-10-25T02:52:02.264Z,89.14
2022-10-25T02:54:29.264Z,89.15
2022-10-25T02:56:56.235Z,89.17
2022-10-25T02:59:23.403Z,89.05
2022-10-25T03:01:50.367Z,89.13
2022-10-25T03:04:17.637Z,89.10
2022-10-25T03:06:44.634Z,89.13
2022-10-25T03:09:11.648Z,89.35
2022-10-25T03:11:38.638Z,89.06
2022-10-25T03:14:05.698Z,89.18
2022-10-25T03:16:32.728Z,89.12
2022-10-25T03:18:59.987Z,89.11
2022-10-25T03:21:27.084Z,89.22
2022-10-25T03:23:54.177Z,89.13
2022-10-25T03:26:22.542Z,89.13
2022-10-25T03:28:49.729Z,89.06
2022-10-25T03:31:18.287Z,88.88
2022-10-25T03:33:45.391Z,88.96
2022-10-25T03:36:14.007Z,88.78
2022-10-25T03:38:41.056Z,88.54
2022-10-25T03:41:08.408Z,88.45
2022-10-25T03:43:35.909Z,88.60
2022-10-25T03:46:02.998Z,88.88
2022-10-25T03:48:30.062Z,89.04
2022-10-25T03:50:57.119Z,89.25
2022-10-25T03:53:24.113Z,89.66
2022-10-25T03:55:51.144Z,89.85
2022-10-25T03:58:19.691Z,89.94
2022-10-25T04:00:46.825Z,89.86
2022-10-25T04:03:14.788Z,90.01
2022-10-25T04:05:45.714Z,89.98
2022-10-25T04:08:12.655Z,89.80
2022-10-25T04:10:39.636Z,89.75
2022-10-25T04:13:06.717Z,90.08
2022-10-25T04:15:33.800Z,90.17
2022-10-25T04:18:00.747Z,89.91
2022-10-25T04:20:28.809Z,90.12
2022-10-25T04:22:57.358Z,90.31
2022-10-25T04:25:26.873Z,90.47
2022-10-25T04:27:54.987Z,90.48
2022-10-25T04:30:22.607Z,90.71
2022-10-25T04:32:50.205Z,90.76
2022-10-25T04:35:17.760Z,90.93
2022-10-25T04:37:45.817Z,90.93
2022-10-25T04:40:13.360Z,90.96
2022-10-25T04:42:42.151Z,91.03
2022-10-25T04:45:11.070Z,91.22
2022-10-25T04:47:38.824Z,91.38
2022-10-25T04:50:07.903Z,91.28
2022-10-25T04:52:35.840Z,91.58
2022-10-25T04:55:03.891Z,91.62
2022-10-25T04:57:32.559Z,92.22
2022-10-25T05:00:00.415Z,92.38
2022-10-25T05:02:28.316Z,92.10
2022-10-25T05:04:56.054Z,92.31
2022-10-25T05:07:24.995Z,92.05
2022-10-25T05:09:52.578Z,92.07
2022-10-25T05:12:40.269Z,92.31
2022-10-25T05:15:09.563Z,92.65
2022-10-25T05:17:38.337Z,92.58
2022-10-25T05:20:10.298Z,92.74
2022-10-25T05:22:37.869Z,92.56
2022-10-25T05:25:07.098Z,92.49
2022-10-25T05:27:40.289Z,92.40
2022-10-25T05:30:09.395Z,92.44
2022-10-25T05:32:38.604Z,92.58
2022-10-25T05:35:06.857Z,92.38
2022-10-25T05:37:34.780Z,92.10
2022-10-25T05:40:02.374Z,92.51
2022-10-25T05:42:30.116Z,92.43
2022-10-25T05:45:00.344Z,92.47
2022-10-25T05:47:28.615Z,92.52
2022-10-25T05:49:56.372Z,92.45
2022-10-25T05:52:24.014Z,92.43
2022-10-25T05:54:52.940Z,92.47
2022-10-25T05:57:21.060Z,92.69
2022-10-25T05:59:49.017Z,92.57
2022-10-25T06:02:17.108Z,92.47
2022-10-25T06:04:47.878Z,92.64
2022-10-25T06:07:20.043Z,92.34
2022-10-25T06:09:47.793Z,92.47
2022-10-25T06:12:15.554Z,92.81
2022-10-25T06:14:43.200Z,92.91
2022-10-25T06:17:13.244Z,92.91
2022-10-25T06:19:40.955Z,92.78
2022-10-25T06:22:08.568Z,92.93
2022-10-25T06:24:36.309Z,92.93
2022-10-25T06:27:03.913Z,92.62
2022-10-25T06:29:31.671Z,92.94
2022-10-25T06:31:59.443Z,92.86
2022-10-25T06:34:29.189Z,92.72
2022-10-25T06:36:56.695Z,92.81
2022-10-25T06:39:25.372Z,92.81
2022-10-25T06:41:52.977Z,92.69
2022-10-25T06:44:21.247Z,92.75
2022-10-25T06:49:39.062Z,92.48
2022-10-25T06:52:07.402Z,92.14
2022-10-25T06:54:36.770Z,92.15
2022-10-25T06:57:04.537Z,92.15
2022-10-25T06:59:32.654Z,92.01
2022-10-25T07:02:00.376Z,91.72
2022-10-25T07:04:32.755Z,91.46
2022-10-25T07:07:00.586Z,91.01
2022-10-25T07:09:28.634Z,90.76
2022-10-25T07:11:57.378Z,90.64
2022-10-25T07:14:25.988Z,90.21
2022-10-25T07:16:54.322Z,89.99
2022-10-25T07:19:24.473Z,90.10
2022-10-25T07:21:53.076Z,90.22
2022-10-25T07:24:21.032Z,90.20
2022-10-25T07:26:48.925Z,90.34
2022-10-25T07:29:17.696Z,90.28
2022-10-25T07:31:46.211Z,90.36
2022-10-25T07:34:34.015Z,90.38
2022-10-25T07:37:03.199Z,90.46
2022-10-25T07:39:30.712Z,90.16
2022-10-25T07:42:00.687Z,90.33
2022-10-25T07:44:27.871Z,90.12
2022-10-25T07:46:55.561Z,89.96
2022-10-25T07:49:23.132Z,89.86
2022-10-25T07:51:50.825Z,89.68
2022-10-25T07:54:18.219Z,90.01
2022-10-25T07:56:48.844Z,90.36
2022-10-25T07:59:19.265Z,90.24
2022-10-25T08:01:46.986Z,89.82
2022-10-25T08:04:14.625Z,89.73
2022-10-25T08:06:42.322Z,89.78
2022-10-25T08:09:14.752Z,89.31
2022-10-25T08:11:44.051Z,88.99
2022-10-25T08:14:12.275Z,88.65
2022-10-25T08:16:40.145Z,88.49
2022-10-25T08:19:12.450Z,88.31
2022-10-25T08:21:39.704Z,88.06
2022-10-25T08:24:07.062Z,87.76
2022-10-25T08:26:36.787Z,87.08
2022-10-25T08:29:04.494Z,87.04
2022-10-25T08:31:33.740Z,86.31
2022-10-25T08:34:00.967Z,86.14
2022-10-25T08:36:31.011Z,85.08
2022-10-25T08:38:59.941Z,84.79
2022-10-25T08:41:38.758Z,84.52
2022-10-25T08:44:23.711Z,84.32
2022-10-25T08:47:04.499Z,84.85
2022-10-25T08:50:03.567Z,84.41
2022-10-25T08:52:55.422Z,83.75
2022-10-25T08:55:32.428Z,83.71
2022-10-25T08:58:02.460Z,83.21
2022-10-25T09:00:37.554Z,83.42
2022-10-25T09:03:05.406Z,82.94
2022-10-25T09:05:45.397Z,83.00
2022-10-25T09:08:33.802Z,82.59
2022-10-25T09:11:20.120Z,82.64
2022-10-25T09:14:12.561Z,81.61
2022-10-25T09:17:04.168Z,80.89
2022-10-25T09:19:39.740Z,81.15
2022-10-25T09:22:26.972Z,81.35
2022-10-25T09:25:02.920Z,81.12
2022-10-25T09:28:01.413Z,80.90
2022-10-25T09:30:39.219Z,80.85
2022-10-25T09:35:54.686Z,81.09
2022-10-25T09:38:40.345Z,81.04
2022-10-25T09:41:19.349Z,81.53
2022-10-25T09:44:06.724Z,81.54
2022-10-25T09:46:56.875Z,80.69
2022-10-25T09:50:22.158Z,80.42
2022-10-25T09:53:17.679Z,79.40
2022-10-25T09:56:00.065Z,79.28
2022-10-25T09:58:31.969Z,79.51
2022-10-25T10:01:06.166Z,79.58
2022-10-25T10:03:36.338Z,79.35
2022-10-25T10:06:18.612Z,79.09
2022-10-25T10:09:02.651Z,78.59
2022-10-25T10:11:34.440Z,78.50
2022-10-25T10:14:40.403Z,78.10
2022-10-25T10:17:15.199Z,78.07
2022-10-25T10:19:44.000Z,77.56
2022-10-25T10:22:17.024Z,78.22
2022-10-25T10:24:57.899Z,78.42
2022-10-25T10:27:27.981Z,77.59
2022-10-25T10:30:02.652Z,78.08
2022-10-25T10:32:37.846Z,77.63
2022-10-25T10:35:28.014Z,77.55
2022-10-25T10:38:15.759Z,77.63
2022-10-25T10:40:45.631Z,77.75
2022-10-25T10:43:31.980Z,77.41
2022-10-25T10:46:08.016Z,77.46
2022-10-25T10:48:43.104Z,77.92
2022-10-25T10:51:42.950Z,77.94
2022-10-25T10:54:23.478Z,77.37
2022-10-25T10:57:03.096Z,76.92
2022-10-25T10:59:53.204Z,76.86
2022-10-25T11:02:26.627Z,76.48
2022-10-25T11:04:56.427Z,76.88
2022-10-25T11:07:35.854Z,76.77
2022-10-25T11:10:14.939Z,76.88
2022-10-25T11:12:44.158Z,76.34
2022-10-25T11:15:13.691Z,76.43
2022-10-25T11:17:54.740Z,75.13
2022-10-25T11:20:48.703Z,74.45
2022-10-25T11:23:23.974Z,74.36
2022-10-25T11:26:02.191Z,73.87
2022-10-25T11:28:54.761Z,74.33
2022-10-25T11:31:43.278Z,74.24
2022-10-25T11:34:37.912Z,74.52
2022-10-25T11:37:21.331Z,74.72
2022-10-25T11:40:09.767Z,74.98
2022-10-25T11:43:08.936Z,74.59
2022-10-25T11:45:46.963Z,74.87
2022-10-25T11:49:00.015Z,74.77
2022-10-25T11:52:11.341Z,74.18
2022-10-25T11:55:08.659Z,74.72
2022-10-25T11:58:03.160Z,74.35
2022-10-25T12:00:46.983Z,74.26
2022-10-25T12:03:33.159Z,73.42
2022-10-25T12:06:22.217Z,72.54
2022-10-25T12:09:10.556Z,71.52
2022-10-25T12:12:07.152Z,70.78
2022-10-25T12:14:41.252Z,70.81
2022-10-25T12:17:23.359Z,70.74
2022-10-25T12:19:55.865Z,70.03
2022-10-25T12:22:47.726Z,68.88
2022-10-25T12:25:34.309Z,67.66
2022-10-25T12:28:41.159Z,65.83
2022-10-25T12:31:21.553Z,66.83
2022-10-25T12:34:01.671Z,67.33
2022-10-25T12:36:38.817Z,67.85
2022-10-25T12:39:41.066Z,68.33
2022-10-25T12:42:50.819Z,69.30
2022-10-25T12:46:04.193Z,70.25
2022-10-25T12:48:59.100Z,70.14
2022-10-25T12:52:01.250Z,70.48
2022-10-25T12:54:37.901Z,70.53
2022-10-25T12:57:33.959Z,70.85
2022-10-25T13:00:12.618Z,71.23
2022-10-25T13:03:03.936Z,71.66
2022-10-25T13:06:13.054Z,71.64
2022-10-25T13:08:42.075Z,71.91
2022-10-25T13:11:10.827Z,71.76
2022-10-25T13:13:50.315Z,71.29
2022-10-25T13:16:33.187Z,71.53
2022-10-25T13:19:49.765Z,71.39
2022-10-25T13:22:39.961Z,71.21
2022-10-25T13:25:13.149Z,71.36
2022-10-25T13:28:15.495Z,70.89
2022-10-25T13:30:44.783Z,70.57
2022-10-25T13:33:22.636Z,70.50
2022-10-25T13:35:49.614Z,70.48
2022-10-25T13:38:25.444Z,70.21
2022-10-25T13:41:12.519Z,70.16
2022-10-25T13:44:02.497Z,69.95
2022-10-25T13:46:37.724Z,69.95
2022-10-25T13:49:29.919Z,69.91
2022-10-25T13:52:01.264Z,70.25
2022-10-25T13:54:48.350Z,70.02
2022-10-25T13:57:55.832Z,69.95
2022-10-25T14:00:36.668Z,69.33
2022-10-25T14:03:34.923Z,68.95
2022-10-25T14:06:08.605Z,68.89
2022-10-25T14:08:49.507Z,68.43
2022-10-25T14:11:27.327Z,68.95
2022-10-25T14:14:13.697Z,68.77
2022-10-25T14:16:53.005Z,69.14
2022-10-25T14:19:27.221Z,68.79
2022-10-25T14:21:55.278Z,68.67
2022-10-25T14:24:22.706Z,69.12
2022-10-25T14:26:56.376Z,68.76
2022-10-25T14:29:28.239Z,68.89
2022-10-25T14:31:57.255Z,68.58
2022-10-25T14:34:30.045Z,69.02
2022-10-25T14:36:58.953Z,69.01
2022-10-25T14:39:30.570Z,69.13
2022-10-25T14:42:03.440Z,68.47
2022-10-25T14:44:50.455Z,68.24
2022-10-25T14:47:33.768Z,67.33
2022-10-25T14:50:02.065Z,67.85
2022-10-25T14:52:31.383Z,68.00
2022-10-25T14:55:06.298Z,67.92
2022-10-25T14:57:34.643Z,68.06
2022-10-25T15:00:05.725Z,68.26
2022-10-25T15:02:37.295Z,68.56
2022-10-25T15:05:05.892Z,67.97
2022-10-25T15:07:41.186Z,67.72
2022-10-25T15:10:40.652Z,68.14
2022-10-25T15:13:16.096Z,68.11
2022-10-25T15:15:47.139Z,68.31
2022-10-25T15:18:35.482Z,68.94
2022-10-25T15:21:17.611Z,68.88
2022-10-25T15:24:14.869Z,69.53
2022-10-25T15:27:05.825Z,69.96
2022-10-25T15:29:42.210Z,69.89
2022-10-25T15:32:22.241Z,70.49
2022-10-25T15:34:56.207Z,70.61
2022-10-25T15:37:26.061Z,70.76
2022-10-25T15:39:55.829Z,70.96
2022-10-25T15:42:25.956Z,71.07
2022-10-25T15:44:52.976Z,71.33
2022-10-25T15:47:33.588Z,71.71
2022-10-25T15:50:10.003Z,71.97
2022-10-25T15:52:37.135Z,72.27
2022-10-25T15:55:27.194Z,72.63
2022-10-25T15:57:55.402Z,72.84
2022-10-25T16:00:28.059Z,73.27
2022-10-25T16:02:59.066Z,73.38
2022-10-25T16:05:33.090Z,73.58
2022-10-25T16:08:00.984Z,73.88
2022-10-25T16:10:29.624Z,74.12
2022-10-25T16:13:09.891Z,74.38
2022-10-25T16:15:37.449Z,74.46
2022-10-25T16:18:04.546Z,74.63
2022-10-25T16:20:32.432Z,74.74
2022-10-25T16:22:59.437Z,74.86
2022-10-25T16:25:32.836Z,75.10
2022-10-25T16:28:01.691Z,75.13
2022-10-25T16:30:36.550Z,75.40
2022-10-25T16:33:05.680Z,75.39
2022-10-25T16:35:33.008Z,75.72
2022-10-25T16:38:00.137Z,75.81
2022-10-25T16:40:27.697Z,75.93
2022-10-25T16:42:54.765Z,76.13
2022-10-25T16:45:30.622Z,76.46
2022-10-25T16:47:58.942Z,76.46
2022-10-25T16:50:29.090Z,76.72
2022-10-25T16:53:01.066Z,76.87
2022-10-25T16:55:30.627Z,77.11
2022-10-25T16:57:59.643Z,77.24
2022-10-25T17:00:29.147Z,77.35
2022-10-25T17:02:56.276Z,77.46
2022-10-25T17:05:28.616Z,77.78
2022-10-25T17:07:56.286Z,77.83
2022-10-25T17:10:23.570Z,78.00
2022-10-25T17:12:54.244Z,78.00
2022-10-25T17:15:22.880Z,78.33
2022-10-25T17:17:50.141Z,78.54
2022-10-25T17:20:17.895Z,78.51
2022-10-25T17:22:45.646Z,78.65
2022-10-25T17:25:12.824Z,78.71
2022-10-25T17:27:45.466Z,78.73
2022-10-25T17:30:16.385Z,79.00
2022-10-25T17:32:43.342Z,79.13
2022-10-25T17:35:11.560Z,79.19
2022-10-25T17:37:43.516Z,79.18
2022-10-25T17:40:12.319Z,79.32
2022-10-25T17:42:40.011Z,79.61
2022-10-25T17:45:07.790Z,79.81
2022-10-25T17:47:37.472Z,79.83
2022-10-25T17:50:05.688Z,80.28
2022-10-25T17:52:32.866Z,80.42
2022-10-25T17:55:01.400Z,80.44
2022-10-25T17:57:28.648Z,80.66
2022-10-25T17:59:58.081Z,80.84
2022-10-25T18:02:25.337Z,80.91
2022-10-25T18:05:08.544Z,81.00
2022-10-25T18:07:39.476Z,81.25
2022-10-25T18:10:06.763Z,81.21
2022-10-25T18:12:33.828Z,81.34
2022-10-25T18:15:00.874Z,81.61
2022-10-25T18:17:27.880Z,81.63
2022-10-25T18:19:54.922Z,81.74
2022-10-25T18:22:22.902Z,81.85
2022-10-25T18:24:49.920Z,81.98
2022-10-25T18:27:16.905Z,81.96
2022-10-25T18:29:43.876Z,82.09
2022-10-25T18:32:10.905Z,82.32
2022-10-25T18:34:37.972Z,82.36
2022-10-25T18:37:05.092Z,82.44
2022-10-25T18:39:32.179Z,82.62
2022-10-25T18:41:59.216Z,82.78
2022-10-25T18:44:26.226Z,82.89
2022-10-25T18:46:54.026Z,83.00
2022-10-25T18:49:21.032Z,82.96
2022-10-25T18:51:48.081Z,83.03
2022-10-25T18:54:15.067Z,83.32
2022-10-25T18:56:42.211Z,83.26
2022-10-25T18:59:10.437Z,83.51
2022-10-25T19:01:37.963Z,83.55
2022-10-25T19:04:05.363Z,83.60
2022-10-25T19:06:33.648Z,83.75
2022-10-25T19:09:02.868Z,83.99
2022-10-25T19:11:30.253Z,84.05
2022-10-25T19:13:57.521Z,83.99
2022-10-25T19:16:24.618Z,84.11
2022-10-25T19:18:52.158Z,84.09
2022-10-25T19:21:19.688Z,84.21
2022-10-25T19:23:47.347Z,84.31
2022-10-25T19:26:19.425Z,84.19
2022-10-25T19:28:48.140Z,84.40
2022-10-25T19:31:18.076Z,84.87
2022-10-25T19:33:50.474Z,84.43
2022-10-25T19:36:19.807Z,84.56
2022-10-25T19:38:50.216Z,84.55
2022-10-25T19:41:22.780Z,84.66
2022-10-25T19:43:50.690Z,84.91
2022-10-25T19:46:18.922Z,84.92
2022-10-25T19:48:46.381Z,85.12
2022-10-25T19:51:20.075Z,85.18
2022-10-25T19:53:47.491Z,85.43
2022-10-25T19:56:20.701Z,85.45
2022-10-25T19:58:48.717Z,85.44
2022-10-25T20:01:23.884Z,85.65
2022-10-25T20:03:54.670Z,85.83
2022-10-25T20:06:26.912Z,85.98
2022-10-25T20:08:57.656Z,85.83
2022-10-25T20:11:26.347Z,85.92
2022-10-25T20:13:55.839Z,86.15
2022-10-25T20:16:25.475Z,86.19
2022-10-25T20:18:53.060Z,86.25
2022-10-25T20:21:26.290Z,86.45
2022-10-25T20:23:58.344Z,86.72
2022-10-25T20:26:31.616Z,86.66
2022-10-25T20:29:02.773Z,86.59
2022-10-25T20:31:33.491Z,86.64
2022-10-25T20:34:02.564Z,86.46
2022-10-25T20:36:30.321Z,86.76
2022-10-25T20:38:59.346Z,86.79
2022-10-25T20:41:30.830Z,86.64
2022-10-25T20:44:00.788Z,86.75
2022-10-25T20:46:28.995Z,86.88
2022-10-25T20:48:58.236Z,87.15
2022-10-25T20:51:26.216Z,87.22
2022-10-25T20:53:53.629Z,87.23
2022-10-25T20:56:21.865Z,87.30
2022-10-25T20:58:49.008Z,87.22
2022-10-25T21:01:16.519Z,87.44
2022-10-25T21:03:48.691Z,87.59
2022-10-25T21:06:15.759Z,87.56
2022-10-25T21:08:42.788Z,87.57
2022-10-25T21:11:13.000Z,87.86
2022-10-25T21:13:40.690Z,87.68
2022-10-25T21:16:09.844Z,87.64
2022-10-25T21:18:37.632Z,87.64
2022-10-25T21:21:09.198Z,87.84
2022-10-25T21:23:36.727Z,87.70
2022-10-25T21:26:07.034Z,87.75
2022-10-25T21:28:40.382Z,87.79
2022-10-25T21:31:15.204Z,87.77
2022-10-25T21:33:49.892Z,87.49
2022-10-25T21:36:20.285Z,87.76
2022-10-25T21:38:49.428Z,87.98
2022-10-25T21:41:23.354Z,87.80
2022-10-25T21:43:50.978Z,88.12
2022-10-25T21:46:20.855Z,88.20
2022-10-25T21:48:50.499Z,88.04
2022-10-25T21:51:21.490Z,88.12
2022-10-25T21:53:48.621Z,88.34
2022-10-25T21:56:20.552Z,88.29
2022-10-25T21:58:49.817Z,88.38
2022-10-25T22:01:24.597Z,88.73
2022-10-25T22:03:52.595Z,88.93
2022-10-25T22:06:23.230Z,88.77
2022-10-25T22:08:50.752Z,88.74
2022-10-25T22:11:27.415Z,88.64
2022-10-25T22:14:02.331Z,88.79
2022-10-25T22:16:32.500Z,88.77
2022-10-25T22:19:13.334Z,88.84
2022-10-25T22:21:41.775Z,88.75
2022-10-25T22:24:11.368Z,88.85
2022-10-25T22:26:44.565Z,88.85
2022-10-25T22:29:13.991Z,88.92
2022-10-25T22:31:41.655Z,88.98
2022-10-25T22:34:10.503Z,88.96
2022-10-25T22:36:41.286Z,88.95
2022-10-25T22:39:10.485Z,89.01
2022-10-25T22:41:37.536Z,88.83
2022-10-25T22:44:04.956Z,88.95
2022-10-25T22:46:35.680Z,88.82
2022-10-25T22:49:08.949Z,89.09
2022-10-25T22:51:38.367Z,88.97
2022-10-25T22:54:05.785Z,89.15
2022-10-25T22:56:33.778Z,89.47
2022-10-25T22:59:04.473Z,89.48
2022-10-25T23:01:35.626Z,89.99
2022-10-25T23:04:09.385Z,89.74
2022-10-25T23:06:39.807Z,90.05
2022-10-25T23:09:11.006Z,90.01
2022-10-25T23:11:40.783Z,89.94
2022-10-25T23:14:13.334Z,89.96
2022-10-25T23:16:46.075Z,90.36
2022-10-25T23:19:13.194Z,90.54
2022-10-25T23:21:41.272Z,90.67
2022-10-25T23:24:09.659Z,90.80
2022-10-25T23:26:36.790Z,90.62
2022-10-25T23:29:05.021Z,90.85
2022-10-25T23:31:32.812Z,91.04
2022-10-25T23:34:01.089Z,90.81
2022-10-25T23:36:37.410Z,90.92
2022-10-25T23:39:07.934Z,90.90
2022-10-25T23:41:34.967Z,91.12
2022-10-25T23:44:02.287Z,91.15
2022-10-25T23:46:29.277Z,91.22
2022-10-25T23:48:56.490Z,91.12
2022-10-25T23:51:23.484Z,91.07
2022-10-25T23:53:50.477Z,91.28
2022-10-25T23:56:17.498Z,91.15
2022-10-25T23:58:45.592Z,91.32
